createdAt,value
2022-08-28T00:02:01.455Z,0.80
2022-08-28T00:04:03.911Z,0.82
2022-08-28T00:06:06.285Z,0.70
2022-08-28T00:08:10.032Z,0.80
2022-08-28T00:10:14.881Z,0.70
2022-08-28T00:12:17.880Z,0.80
2022-08-28T00:14:21.502Z,0.70
2022-08-28T00:16:23.731Z,1.05
2022-08-28T00:18:30.490Z,0.57
2022-08-28T00:20:33.616Z,0.75
2022-08-28T00:22:36.509Z,0.50
2022-08-28T00:24:38.693Z,0.88
2022-08-28T00:26:59.120Z,0.82
2022-08-28T00:29:01.527Z,0.77
2022-08-28T00:31:05.390Z,0.90
2022-08-28T00:33:16.028Z,0.65
2022-08-28T00:35:20.917Z,0.50
2022-08-28T00:37:24.632Z,0.82
2022-08-28T00:39:26.811Z,0.90
2022-08-28T00:41:31.539Z,0.60
2022-08-28T00:43:42.665Z,0.60
2022-08-28T00:45:44.705Z,0.77
2022-08-28T00:47:47.496Z,0.65
2022-08-28T00:49:53.419Z,0.47
2022-08-28T00:52:08.276Z,0.50
2022-08-28T00:54:13.604Z,0.45
2022-08-28T00:56:18.775Z,0.60
2022-08-28T00:58:20.948Z,0.93
2022-08-28T01:00:35.217Z,0.75
2022-08-28T01:02:37.452Z,0.52
2022-08-28T01:04:39.874Z,0.75
2022-08-28T01:06:41.948Z,0.80
2022-08-28T01:08:50.409Z,0.70
2022-08-28T01:10:55.461Z,0.60
2022-08-28T01:12:58.816Z,0.70
2022-08-28T01:15:15.700Z,0.40
2022-08-28T01:17:21.272Z,0.40
2022-08-28T01:19:38.392Z,0.47
2022-08-28T01:21:54.960Z,0.57
2022-08-28T01:24:04.897Z,0.65
2022-08-28T01:26:11.876Z,0.77
2022-08-28T01:28:23.474Z,0.55
2022-08-28T01:30:25.342Z,0.52
2022-08-28T01:32:38.423Z,0.30
2022-08-28T01:35:15.666Z,0.60
2022-08-28T01:37:17.404Z,0.80
2022-08-28T01:39:28.487Z,0.52
2022-08-28T01:41:30.946Z,0.30
2022-08-28T01:43:33.014Z,0.45
2022-08-28T01:45:37.777Z,0.77
2022-08-28T01:47:41.130Z,0.38
2022-08-28T01:49:43.916Z,0.30
2022-08-28T01:51:46.689Z,1.13
2022-08-28T01:53:50.555Z,0.55
2022-08-28T01:55:54.408Z,0.47
2022-08-28T01:57:56.615Z,0.30
2022-08-28T01:59:58.730Z,0.35
2022-08-28T02:02:01.555Z,0.40
2022-08-28T02:04:04.867Z,0.40
2022-08-28T02:06:07.464Z,0.40
2022-08-28T02:08:10.326Z,0.73
2022-08-28T02:10:12.701Z,0.40
2022-08-28T02:12:15.034Z,0.35
2022-08-28T02:14:17.090Z,0.63
2022-08-28T02:16:19.737Z,0.80
2022-08-28T02:18:22.027Z,0.43
2022-08-28T02:20:25.111Z,0.60
2022-08-28T02:22:27.874Z,0.65
2022-08-28T02:24:30.041Z,0.35
2022-08-28T02:26:33.464Z,0.50
2022-08-28T02:28:36.471Z,0.40
2022-08-28T02:30:40.325Z,0.35
2022-08-28T02:32:42.345Z,0.60
2022-08-28T02:34:46.572Z,0.52
2022-08-28T02:36:49.288Z,0.60
2022-08-28T02:38:56.966Z,0.82
2022-08-28T02:40:59.714Z,0.65
2022-08-28T02:43:06.283Z,1.00
2022-08-28T02:45:19.425Z,0.88
2022-08-28T02:47:21.420Z,0.70
2022-08-28T02:49:24.155Z,0.50
2022-08-28T02:51:30.929Z,0.88
2022-08-28T02:53:33.250Z,0.75
2022-08-28T02:55:35.242Z,0.50
2022-08-28T02:57:37.515Z,1.00
2022-08-28T02:59:40.166Z,0.50
2022-08-28T03:01:42.157Z,0.65
2022-08-28T03:03:44.428Z,0.70
2022-08-28T03:05:46.939Z,0.50
2022-08-28T03:07:49.994Z,0.77
2022-08-28T03:09:52.305Z,0.63
2022-08-28T03:11:54.604Z,0.52
2022-08-28T03:13:56.738Z,0.60
2022-08-28T03:15:58.909Z,0.50
2022-08-28T03:18:00.857Z,0.82
2022-08-28T03:20:08.193Z,0.52
2022-08-28T03:22:10.127Z,0.80
2022-08-28T03:24:11.964Z,0.40
2022-08-28T03:26:20.791Z,0.50
2022-08-28T03:28:22.880Z,0.50
2022-08-28T03:30:25.375Z,0.70
2022-08-28T03:32:29.336Z,0.73
2022-08-28T03:34:31.293Z,0.60
2022-08-28T03:36:33.527Z,0.60
2022-08-28T03:38:35.843Z,0.40
2022-08-28T03:40:44.318Z,0.47
2022-08-28T03:42:53.547Z,0.68
2022-08-28T03:44:55.929Z,0.50
2022-08-28T03:46:57.763Z,0.60
2022-08-28T03:49:01.618Z,0.75
2022-08-28T03:51:12.301Z,0.55
2022-08-28T03:55:16.923Z,0.80
2022-08-28T03:57:21.111Z,0.70
2022-08-28T03:59:32.006Z,0.50
2022-08-28T04:01:38.325Z,0.50
2022-08-28T04:03:40.417Z,0.40
2022-08-28T04:05:44.057Z,0.65
2022-08-28T04:07:46.061Z,0.47
2022-08-28T04:09:47.923Z,0.50
2022-08-28T04:11:49.808Z,0.63
2022-08-28T04:13:51.776Z,0.47
2022-08-28T04:16:06.462Z,0.40
2022-08-28T04:18:09.811Z,0.43
2022-08-28T04:20:11.860Z,0.60
2022-08-28T04:22:13.690Z,0.60
2022-08-28T04:24:15.672Z,0.68
2022-08-28T04:26:21.201Z,0.43
2022-08-28T04:28:24.067Z,0.55
2022-08-28T04:30:25.929Z,0.40
2022-08-28T04:32:27.904Z,0.47
2022-08-28T04:34:31.049Z,0.43
2022-08-28T04:36:36.042Z,0.35
2022-08-28T04:38:43.539Z,0.68
2022-08-28T04:40:46.595Z,0.70
2022-08-28T04:42:50.972Z,0.68
2022-08-28T04:44:58.167Z,0.60
2022-08-28T04:47:00.406Z,0.47
2022-08-28T04:49:04.688Z,0.70
2022-08-28T04:51:09.147Z,0.47
2022-08-28T04:53:11.763Z,0.60
2022-08-28T04:55:14.571Z,0.70
2022-08-28T04:57:20.101Z,0.57
2022-08-28T04:59:31.463Z,0.40
2022-08-28T05:01:33.652Z,0.50
2022-08-28T05:03:35.777Z,0.60
2022-08-28T05:05:46.253Z,0.68
2022-08-28T05:07:48.207Z,0.60
2022-08-28T05:09:53.971Z,1.17
2022-08-28T05:11:55.837Z,0.63
2022-08-28T05:13:57.751Z,0.90
2022-08-28T05:16:02.922Z,0.50
2022-08-28T05:18:05.108Z,0.70
2022-08-28T05:20:07.371Z,0.63
2022-08-28T05:22:13.720Z,0.45
2022-08-28T05:24:17.306Z,0.60
2022-08-28T05:26:20.092Z,0.40
2022-08-28T05:28:24.580Z,0.70
2022-08-28T05:30:27.309Z,0.77
2022-08-28T05:32:29.044Z,0.43
2022-08-28T05:34:31.487Z,0.68
2022-08-28T05:36:35.940Z,0.60
2022-08-28T05:38:38.750Z,0.77
2022-08-28T05:40:46.419Z,0.60
2022-08-28T05:42:52.260Z,0.60
2022-08-28T05:44:54.765Z,0.73
2022-08-28T05:46:56.743Z,1.13
2022-08-28T05:49:00.468Z,0.70
2022-08-28T05:51:14.997Z,0.93
2022-08-28T05:53:18.190Z,0.60
2022-08-28T05:55:19.880Z,0.77
2022-08-28T05:57:21.572Z,1.08
2022-08-28T05:59:27.583Z,0.93
2022-08-28T06:01:32.222Z,0.75
2022-08-28T06:03:35.122Z,0.50
2022-08-28T06:05:38.179Z,0.95
2022-08-28T06:07:41.150Z,0.63
2022-08-28T06:09:43.556Z,0.90
2022-08-28T06:11:46.312Z,0.63
2022-08-28T06:13:48.494Z,0.60
2022-08-28T06:15:50.693Z,0.82
2022-08-28T06:17:54.282Z,0.50
2022-08-28T06:19:56.143Z,0.50
2022-08-28T06:22:00.141Z,0.80
2022-08-28T06:24:03.771Z,0.50
2022-08-28T06:26:07.060Z,0.85
2022-08-28T06:28:08.793Z,0.75
2022-08-28T06:30:11.523Z,0.70
2022-08-28T06:32:13.370Z,0.60
2022-08-28T06:34:15.233Z,0.65
2022-08-28T06:36:17.095Z,1.35
2022-08-28T06:38:21.045Z,1.70
2022-08-28T06:40:23.159Z,0.65
2022-08-28T06:42:25.298Z,0.50
2022-08-28T06:44:27.149Z,0.60
2022-08-28T06:46:30.546Z,0.63
2022-08-28T06:48:32.390Z,0.60
2022-08-28T06:50:34.718Z,0.80
2022-08-28T06:52:36.405Z,0.70
2022-08-28T06:54:40.461Z,0.57
2022-08-28T06:56:59.883Z,0.60
2022-08-28T06:59:02.689Z,0.65
2022-08-28T07:01:10.805Z,0.60
2022-08-28T07:03:14.227Z,0.77
2022-08-28T07:05:19.415Z,0.50
2022-08-28T07:07:31.854Z,0.98
2022-08-28T07:09:34.205Z,0.60
2022-08-28T07:11:37.170Z,0.60
2022-08-28T07:13:38.865Z,1.08
2022-08-28T07:15:41.865Z,0.68
2022-08-28T07:17:44.321Z,0.70
2022-08-28T07:19:46.600Z,0.50
2022-08-28T07:21:48.296Z,0.50
2022-08-28T07:23:50.417Z,0.93
2022-08-28T07:25:52.529Z,0.50
2022-08-28T07:27:54.389Z,0.60
2022-08-28T07:29:56.065Z,0.68
2022-08-28T07:31:59.080Z,0.50
2022-08-28T07:34:00.885Z,0.80
2022-08-28T07:36:03.468Z,0.70
2022-08-28T07:38:05.333Z,0.60
2022-08-28T07:40:08.680Z,0.90
2022-08-28T07:42:35.765Z,0.60
2022-08-28T07:44:50.429Z,0.68
2022-08-28T07:46:57.600Z,0.57
2022-08-28T07:48:59.582Z,0.52
2022-08-28T07:51:05.738Z,0.90
2022-08-28T07:53:08.207Z,1.08
2022-08-28T07:55:10.087Z,0.90
2022-08-28T07:57:11.782Z,0.77
2022-08-28T07:59:16.972Z,0.85
2022-08-28T08:01:19.724Z,0.73
2022-08-28T08:03:22.962Z,1.73
2022-08-28T08:05:25.735Z,0.90
2022-08-28T08:07:27.462Z,0.85
2022-08-28T08:09:29.194Z,0.82
2022-08-28T08:11:32.497Z,0.93
2022-08-28T08:13:35.248Z,0.80
2022-08-28T08:15:37.142Z,0.90
2022-08-28T08:17:39.412Z,1.05
2022-08-28T08:19:41.157Z,1.13
2022-08-28T08:21:45.105Z,0.98
2022-08-28T08:23:47.842Z,0.65
2022-08-28T08:26:00.962Z,1.08
2022-08-28T08:28:04.001Z,0.63
2022-08-28T08:30:06.215Z,0.98
2022-08-28T08:32:10.647Z,0.73
2022-08-28T08:34:12.362Z,1.55
2022-08-28T08:36:15.730Z,0.85
2022-08-28T08:38:17.411Z,0.80
2022-08-28T08:40:20.702Z,0.80
2022-08-28T08:42:30.140Z,0.90
2022-08-28T08:44:41.972Z,0.70
2022-08-28T08:46:53.780Z,1.52
2022-08-28T08:49:10.473Z,0.70
2022-08-28T08:51:25.381Z,0.60
2022-08-28T08:53:36.018Z,0.80
2022-08-28T08:55:50.517Z,0.57
2022-08-28T08:58:16.551Z,0.80
2022-08-28T09:00:20.412Z,0.75
2022-08-28T09:02:31.458Z,0.63
2022-08-28T09:04:45.073Z,0.60
2022-08-28T09:07:00.230Z,0.60
2022-08-28T09:09:07.211Z,0.70
2022-08-28T09:11:26.994Z,0.68
2022-08-28T09:13:52.940Z,1.23
2022-08-28T09:16:05.583Z,0.60
2022-08-28T09:18:25.961Z,0.57
2022-08-28T09:20:33.215Z,0.90
2022-08-28T09:22:37.291Z,0.63
2022-08-28T09:24:41.336Z,1.35
2022-08-28T09:26:43.279Z,1.27
2022-08-28T09:28:58.265Z,0.50
2022-08-28T09:31:39.419Z,0.75
2022-08-28T09:33:51.498Z,0.95
2022-08-28T09:35:53.185Z,0.60
2022-08-28T09:37:55.967Z,0.88
2022-08-28T09:40:17.224Z,0.65
2022-08-28T09:42:42.414Z,0.50
2022-08-28T09:45:09.247Z,0.63
2022-08-28T09:47:46.126Z,0.50
2022-08-28T09:49:48.397Z,0.60
2022-08-28T09:51:50.765Z,0.70
2022-08-28T09:53:52.421Z,0.57
2022-08-28T09:56:03.294Z,0.63
2022-08-28T09:58:06.439Z,0.63
2022-08-28T10:00:08.905Z,1.05
2022-08-28T10:02:46.625Z,0.40
2022-08-28T10:05:10.685Z,0.60
2022-08-28T10:07:40.426Z,1.20
2022-08-28T10:10:22.844Z,0.52
2022-08-28T10:12:52.534Z,0.75
2022-08-28T10:15:00.105Z,0.70
2022-08-28T10:17:25.546Z,0.57
2022-08-28T10:20:03.017Z,0.40
2022-08-28T10:22:19.355Z,0.40
2022-08-28T10:24:31.320Z,0.65
2022-08-28T10:27:00.533Z,0.60
2022-08-28T10:29:39.487Z,0.63
2022-08-28T10:31:49.170Z,0.60
2022-08-28T10:34:15.630Z,0.50
2022-08-28T10:36:34.044Z,0.73
2022-08-28T10:38:40.404Z,0.40
2022-08-28T10:40:49.928Z,0.70
2022-08-28T10:43:00.645Z,0.60
2022-08-28T10:47:13.107Z,0.43
2022-08-28T10:49:34.818Z,0.55
2022-08-28T10:51:44.953Z,0.63
2022-08-28T10:53:56.726Z,0.80
2022-08-28T10:56:03.111Z,0.70
2022-08-28T10:58:24.364Z,0.70
2022-08-28T11:00:33.059Z,0.70
2022-08-28T11:02:37.720Z,0.82
2022-08-28T11:04:40.185Z,0.63
2022-08-28T11:06:48.247Z,0.70
2022-08-28T11:08:53.847Z,0.40
2022-08-28T11:10:58.512Z,0.40
2022-08-28T11:13:01.558Z,0.75
2022-08-28T11:15:40.928Z,0.73
2022-08-28T11:17:43.491Z,0.50
2022-08-28T11:19:53.584Z,0.63
2022-08-28T11:22:15.486Z,0.60
2022-08-28T11:24:30.498Z,0.60
2022-08-28T11:26:38.443Z,0.47
2022-08-28T11:28:47.498Z,0.77
2022-08-28T11:31:10.208Z,0.63
2022-08-28T11:33:44.303Z,0.50
2022-08-28T11:35:49.678Z,0.73
2022-08-28T11:37:54.996Z,0.60
2022-08-28T11:40:33.892Z,0.77
2022-08-28T11:42:37.708Z,0.70
2022-08-28T11:44:42.554Z,0.50
2022-08-28T11:46:52.185Z,0.60
2022-08-28T11:48:57.277Z,0.70
2022-08-28T11:51:07.061Z,0.50
2022-08-28T11:53:22.846Z,0.90
2022-08-28T11:55:31.585Z,0.85
2022-08-28T12:00:23.882Z,0.90
2022-08-28T12:04:43.271Z,1.17
2022-08-28T12:06:53.409Z,0.80
2022-08-28T12:11:04.304Z,1.10
2022-08-28T12:13:07.867Z,1.20
2022-08-28T12:15:10.709Z,0.95
2022-08-28T12:17:15.196Z,0.82
2022-08-28T12:19:59.313Z,1.08
2022-08-28T12:22:13.662Z,0.68
2022-08-28T12:24:22.679Z,0.80
2022-08-28T12:26:30.120Z,0.50
2022-08-28T12:29:14.494Z,0.70
2022-08-28T12:31:58.976Z,1.65
2022-08-28T12:34:10.707Z,0.95
2022-08-28T12:36:16.849Z,1.00
2022-08-28T12:38:22.057Z,0.90
2022-08-28T12:40:50.281Z,0.90
2022-08-28T12:42:58.739Z,0.80
2022-08-28T12:45:07.565Z,0.90
2022-08-28T12:47:16.528Z,0.70
2022-08-28T12:49:37.080Z,0.95
2022-08-28T12:51:38.800Z,0.60
2022-08-28T12:53:46.996Z,0.60
2022-08-28T12:55:48.809Z,0.93
2022-08-28T12:57:51.353Z,1.10
2022-08-28T12:59:55.590Z,0.90
2022-08-28T13:02:03.749Z,1.63
2022-08-28T13:04:27.702Z,0.98
2022-08-28T13:06:38.614Z,1.50
2022-08-28T13:08:40.748Z,1.35
2022-08-28T13:10:49.493Z,0.85
2022-08-28T13:13:07.151Z,1.00
2022-08-28T13:15:12.476Z,1.27
2022-08-28T13:17:35.575Z,1.48
2022-08-28T13:19:38.435Z,1.60
2022-08-28T13:21:51.946Z,0.88
2022-08-28T13:23:58.403Z,0.60
2022-08-28T13:26:06.788Z,0.60
2022-08-28T13:28:17.796Z,0.80
2022-08-28T13:30:26.565Z,0.98
2022-08-28T13:32:30.786Z,1.05
2022-08-28T13:34:35.814Z,1.48
2022-08-28T13:36:49.445Z,1.15
2022-08-28T13:38:51.144Z,0.88
2022-08-28T13:41:03.575Z,1.08
2022-08-28T13:43:10.161Z,0.90
2022-08-28T13:45:13.363Z,0.80
2022-08-28T13:47:15.785Z,0.80
2022-08-28T13:49:29.225Z,1.00
2022-08-28T13:51:30.950Z,1.10
2022-08-28T13:53:33.866Z,0.93
2022-08-28T13:55:35.639Z,0.70
2022-08-28T13:57:37.360Z,0.70
2022-08-28T13:59:39.134Z,1.00
2022-08-28T14:01:59.801Z,1.02
2022-08-28T14:06:06.259Z,0.60
2022-08-28T14:08:07.983Z,0.63
2022-08-28T14:10:10.019Z,1.00
2022-08-28T14:12:12.428Z,1.30
2022-08-28T14:14:14.335Z,0.77
2022-08-28T14:16:16.907Z,0.88
2022-08-28T14:18:18.719Z,1.00
2022-08-28T14:20:21.698Z,0.68
2022-08-28T14:22:23.671Z,0.82
2022-08-28T14:24:26.213Z,1.02
2022-08-28T14:26:29.708Z,3.28
2022-08-28T14:28:31.506Z,1.48
2022-08-28T14:30:33.434Z,1.25
2022-08-28T14:32:35.629Z,0.98
2022-08-28T14:34:38.778Z,0.80
2022-08-28T14:36:41.838Z,0.80
2022-08-28T14:38:43.641Z,1.35
2022-08-28T14:40:45.687Z,0.47
2022-08-28T14:42:47.693Z,0.60
2022-08-28T14:44:49.440Z,1.08
2022-08-28T14:46:52.705Z,0.63
2022-08-28T14:49:02.074Z,1.27
2022-08-28T14:51:04.715Z,0.50
2022-08-28T14:53:06.490Z,0.60
2022-08-28T14:55:11.157Z,0.75
2022-08-28T14:57:13.729Z,0.60
2022-08-28T14:59:30.294Z,0.68
2022-08-28T15:01:40.420Z,0.43
2022-08-28T15:03:42.725Z,0.95
2022-08-28T15:05:45.344Z,0.90
2022-08-28T15:07:47.064Z,1.17
2022-08-28T15:09:48.786Z,0.70
2022-08-28T15:11:50.492Z,0.43
2022-08-28T15:13:53.058Z,0.50
2022-08-28T15:16:02.894Z,0.95
2022-08-28T15:18:05.378Z,1.10
2022-08-28T15:20:07.650Z,1.00
2022-08-28T15:22:09.318Z,0.90
2022-08-28T15:24:13.479Z,0.85
2022-08-28T15:26:16.120Z,0.77
2022-08-28T15:28:17.992Z,0.70
2022-08-28T15:30:19.746Z,0.70
2022-08-28T15:32:21.430Z,0.52
2022-08-28T15:34:25.165Z,0.50
2022-08-28T15:36:26.847Z,0.50
2022-08-28T15:38:28.647Z,0.85
2022-08-28T15:40:49.242Z,0.52
2022-08-28T15:44:52.466Z,0.40
2022-08-28T15:46:57.695Z,0.45
2022-08-28T15:49:04.601Z,0.80
2022-08-28T15:51:09.519Z,0.60
2022-08-28T15:53:12.484Z,0.85
2022-08-28T15:55:14.289Z,0.98
2022-08-28T15:57:16.314Z,0.60
2022-08-28T15:59:38.101Z,0.88
2022-08-28T16:01:51.466Z,0.70
2022-08-28T16:03:53.504Z,0.70
2022-08-28T16:05:55.295Z,0.70
2022-08-28T16:07:56.998Z,0.60
2022-08-28T16:09:58.849Z,0.70
2022-08-28T16:12:00.556Z,0.93
2022-08-28T16:14:04.632Z,0.93
2022-08-28T16:16:07.458Z,0.70
2022-08-28T16:18:09.602Z,0.50
2022-08-28T16:20:12.830Z,0.50
2022-08-28T16:22:18.004Z,0.70
2022-08-28T16:24:19.778Z,1.27
2022-08-28T16:26:21.593Z,1.00
2022-08-28T16:28:23.337Z,1.08
2022-08-28T16:30:25.091Z,1.33
2022-08-28T16:32:27.021Z,1.55
2022-08-28T16:34:31.516Z,1.20
2022-08-28T16:36:33.622Z,1.02
2022-08-28T16:38:44.112Z,0.70
2022-08-28T16:40:46.774Z,1.15
2022-08-28T16:42:51.802Z,1.10
2022-08-28T16:44:57.692Z,0.80
2022-08-28T16:46:59.682Z,1.08
2022-08-28T16:49:01.702Z,1.20
2022-08-28T16:51:04.040Z,1.05
2022-08-28T16:53:07.146Z,0.80
2022-08-28T16:55:11.160Z,0.80
2022-08-28T16:57:12.931Z,0.80
2022-08-28T16:59:29.780Z,1.00
2022-08-28T17:01:31.740Z,0.47
2022-08-28T17:03:33.590Z,0.90
2022-08-28T17:05:35.292Z,0.98
2022-08-28T17:07:40.084Z,1.00
2022-08-28T17:09:41.888Z,0.77
2022-08-28T17:11:43.632Z,1.20
2022-08-28T17:13:45.778Z,1.27
2022-08-28T17:15:47.608Z,1.80
2022-08-28T17:17:49.498Z,1.98
2022-08-28T17:19:51.245Z,1.17
2022-08-28T17:22:11.410Z,0.90
2022-08-28T17:24:13.639Z,1.20
2022-08-28T17:26:16.122Z,1.10
2022-08-28T17:28:18.047Z,0.82
2022-08-28T17:30:20.765Z,1.33
2022-08-28T17:32:22.593Z,1.15
2022-08-28T17:34:29.486Z,1.40
2022-08-28T17:36:33.458Z,0.80
2022-08-28T17:38:36.439Z,0.90
2022-08-28T17:40:39.395Z,1.00
2022-08-28T17:42:41.704Z,1.58
2022-08-28T17:44:43.663Z,0.85
2022-08-28T17:46:45.957Z,0.90
2022-08-28T17:48:54.433Z,0.93
2022-08-28T17:50:58.660Z,1.65
2022-08-28T17:53:00.970Z,0.77
2022-08-28T17:55:03.686Z,0.95
2022-08-28T17:57:05.673Z,0.70
2022-08-28T17:59:07.842Z,0.75
2022-08-28T18:01:09.618Z,1.10
2022-08-28T18:03:11.871Z,1.05
2022-08-28T18:05:14.638Z,1.50
2022-08-28T18:07:16.725Z,1.10
2022-08-28T18:09:27.584Z,0.95
2022-08-28T18:11:29.568Z,1.20
2022-08-28T18:13:32.131Z,1.35
2022-08-28T18:15:34.513Z,5.00
2022-08-28T18:17:39.732Z,4.35
2022-08-28T18:19:42.136Z,3.33
2022-08-28T18:21:44.832Z,1.20
2022-08-28T18:23:46.811Z,0.82
2022-08-28T18:25:50.920Z,1.85
2022-08-28T18:27:52.945Z,12.52
2022-08-28T18:29:55.891Z,8.32
2022-08-28T18:31:57.686Z,20.30
2022-08-28T18:33:59.862Z,3.30
2022-08-28T18:36:02.201Z,2.08
2022-08-28T18:38:05.089Z,1.58
2022-08-28T18:40:07.569Z,1.30
2022-08-28T18:42:09.882Z,1.75
2022-08-28T18:44:15.520Z,2.25
2022-08-28T18:46:17.798Z,2.05
2022-08-28T18:48:19.963Z,9.32
2022-08-28T18:50:22.323Z,14.45
2022-08-28T18:52:24.220Z,4.13
2022-08-28T18:54:26.290Z,4.07
2022-08-28T18:56:32.495Z,2.10
2022-08-28T18:58:35.702Z,2.47
2022-08-28T19:00:38.600Z,1.55
2022-08-28T19:02:41.775Z,1.20
2022-08-28T19:04:45.065Z,5.10
2022-08-28T19:06:47.072Z,16.08
2022-08-28T19:08:49.131Z,8.30
2022-08-28T19:10:51.874Z,2.63
2022-08-28T19:12:53.968Z,1.90
2022-08-28T19:14:59.428Z,1.58
2022-08-28T19:17:02.035Z,2.05
2022-08-28T19:19:04.385Z,1.40
2022-08-28T19:21:12.191Z,1.90
2022-08-28T19:23:18.425Z,1.92
2022-08-28T19:25:28.844Z,2.40
2022-08-28T19:27:32.902Z,2.10
2022-08-28T19:29:36.137Z,2.10
2022-08-28T19:31:38.959Z,2.08
2022-08-28T19:33:41.084Z,1.85
2022-08-28T19:35:43.447Z,2.00
2022-08-28T19:37:45.733Z,2.10
2022-08-28T19:39:56.438Z,1.95
2022-08-28T19:41:59.846Z,1.67
2022-08-28T19:44:03.667Z,1.83
2022-08-28T19:46:14.053Z,1.60
2022-08-28T19:48:21.866Z,1.05
2022-08-28T19:50:24.145Z,1.60
2022-08-28T19:52:26.200Z,1.23
2022-08-28T19:54:28.135Z,1.10
2022-08-28T19:56:32.559Z,1.70
2022-08-28T19:58:36.242Z,1.40
2022-08-28T20:00:38.153Z,22.35
2022-08-28T20:02:40.482Z,24.73
2022-08-28T20:04:42.579Z,22.83
2022-08-28T20:06:46.144Z,5.53
2022-08-28T20:08:48.028Z,3.47
2022-08-28T20:10:50.646Z,1.75
2022-08-28T20:12:53.716Z,2.10
2022-08-28T20:14:59.027Z,1.83
2022-08-28T20:17:05.424Z,1.40
2022-08-28T20:19:10.746Z,2.25
2022-08-28T20:21:13.211Z,2.33
2022-08-28T20:23:19.696Z,3.03
2022-08-28T20:25:22.163Z,2.70
2022-08-28T20:27:24.263Z,1.80
2022-08-28T20:29:34.687Z,1.50
2022-08-28T20:31:43.007Z,2.05
2022-08-28T20:33:46.704Z,3.17
2022-08-28T20:35:48.706Z,1.20
2022-08-28T20:37:50.614Z,1.98
2022-08-28T20:39:57.750Z,1.38
2022-08-28T20:41:59.846Z,1.85
2022-08-28T20:44:05.082Z,10.18
2022-08-28T20:46:08.040Z,21.02
2022-08-28T20:48:10.066Z,10.38
2022-08-28T20:50:14.236Z,3.72
2022-08-28T20:52:16.500Z,1.80
2022-08-28T20:54:21.097Z,1.20
2022-08-28T20:56:23.441Z,1.73
2022-08-28T20:58:27.127Z,2.10
2022-08-28T21:00:29.291Z,1.85
2022-08-28T21:02:31.773Z,2.25
2022-08-28T21:04:39.245Z,2.00
2022-08-28T21:06:41.657Z,1.52
2022-08-28T21:08:43.621Z,1.40
2022-08-28T21:10:46.049Z,1.83
2022-08-28T21:12:48.128Z,1.60
2022-08-28T21:14:51.459Z,1.90
2022-08-28T21:16:54.420Z,1.42
2022-08-28T21:19:15.118Z,1.35
2022-08-28T21:21:18.355Z,1.55
2022-08-28T21:23:22.334Z,1.40
2022-08-28T21:25:25.240Z,1.33
2022-08-28T21:27:27.769Z,1.33
2022-08-28T21:29:34.933Z,1.85
2022-08-28T21:31:37.275Z,1.27
2022-08-28T21:33:41.549Z,1.80
2022-08-28T21:35:44.136Z,1.75
2022-08-28T21:37:46.340Z,1.45
2022-08-28T21:39:48.466Z,1.10
2022-08-28T21:41:51.465Z,1.80
2022-08-28T21:43:53.550Z,1.75
2022-08-28T21:46:03.433Z,1.20
2022-08-28T21:48:06.251Z,1.63
2022-08-28T21:50:11.075Z,1.13
2022-08-28T21:52:13.015Z,2.00
2022-08-28T21:54:15.146Z,1.55
2022-08-28T21:56:25.146Z,1.38
2022-08-28T21:58:27.229Z,1.38
2022-08-28T22:00:29.252Z,1.50
2022-08-28T22:02:31.278Z,1.40
2022-08-28T22:04:33.614Z,0.90
2022-08-28T22:06:35.901Z,0.95
2022-08-28T22:08:39.966Z,22.60
2022-08-28T22:10:43.983Z,10.13
2022-08-28T22:12:45.956Z,13.60
2022-08-28T22:14:48.456Z,3.58
2022-08-28T22:16:50.857Z,1.23
2022-08-28T22:18:53.239Z,1.08
2022-08-28T22:21:13.910Z,0.85
2022-08-28T22:23:17.889Z,0.98
2022-08-28T22:25:20.034Z,1.27
2022-08-28T22:27:22.581Z,1.67
2022-08-28T22:29:33.265Z,1.77
2022-08-28T22:33:39.275Z,1.33
2022-08-28T22:35:41.265Z,1.13
2022-08-28T22:37:43.370Z,1.33
2022-08-28T22:39:45.455Z,0.90
2022-08-28T22:41:47.669Z,1.05
2022-08-28T22:43:50.918Z,1.00
2022-08-28T22:45:52.919Z,1.40
2022-08-28T22:47:54.995Z,0.88
2022-08-28T22:49:58.602Z,1.33
2022-08-28T22:52:00.537Z,1.45
2022-08-28T22:54:02.645Z,1.00
2022-08-28T22:56:04.935Z,1.55
2022-08-28T22:58:07.672Z,1.77
2022-08-28T23:00:13.881Z,1.00
2022-08-28T23:02:18.481Z,1.83
2022-08-28T23:04:20.513Z,1.23
2022-08-28T23:06:27.940Z,0.85
2022-08-28T23:08:33.874Z,1.13
2022-08-28T23:10:57.492Z,1.10
2022-08-28T23:12:58.480Z,1.00
2022-08-28T23:15:02.115Z,1.10
2022-08-28T23:17:04.172Z,1.38
2022-08-28T23:19:09.132Z,0.95
2022-08-28T23:21:11.690Z,0.95
2022-08-28T23:23:14.208Z,0.93
2022-08-28T23:25:19.460Z,1.00
2022-08-28T23:27:37.084Z,0.90
2022-08-28T23:29:39.549Z,0.65
2022-08-28T23:31:41.642Z,1.10
2022-08-28T23:33:43.927Z,1.00
2022-08-28T23:35:45.932Z,0.68
2022-08-28T23:37:51.851Z,1.00
2022-08-28T23:39:54.597Z,1.20
2022-08-28T23:41:56.752Z,0.77
2022-08-28T23:43:58.901Z,1.10
2022-08-28T23:46:01.197Z,1.05
2022-08-28T23:48:04.605Z,0.90
2022-08-28T23:50:09.631Z,0.88
2022-08-28T23:52:12.407Z,1.15
2022-08-28T23:54:14.863Z,1.50
2022-08-28T23:56:17.650Z,1.05
2022-08-28T23:58:20.750Z,1.00
